Hudson, Maine
Current Conditions -  °F | °C
As of 6:53 AM on Thursday 27 Nov 2014 (Local Time) from KBGR Reporting Station
Light Snow Light Snow  
Wind Chill: 15°   Ceiling: 2400
Heat Index: 28°   Visibility: 1mi
Dew Point: 25°   Wind: 18mph
Humidity: 88%   Direction: 340°NNW
Pressure: 29.75"   Gusts: NA
Location:  45°N, 68.88°W
Report Text: KBGR 271153Z 34016KT 1SM R15/P6000FT -SN BR SCT015 OVC024 M02/M04 A2975 RMK AO2 SLP078 P0001 60008 70078 T10221039 11017 21028 53019 $
Loading
Personal Weather Stations






























Interactive Weather Map New forecast layout! Learn more

10-Day Weather Forecast

Advertisements
Track Severe Weather on mobile